Dover, Kentucky
Current Conditions -  °F | °C
As of 1:35 AM on Tuesday 21 Oct 2014 (Local Time) from KFGX Reporting Station
Clear Clear  
Wind Chill: 51°   Ceiling: Unl
Heat Index: 51°   Visibility: 10mi
Dew Point: 49°   Wind: 3mph
Humidity: 92%   Direction: 260°W
Pressure: 29.93"   Gusts: NA
Location:  38.76°N, 83.88°W
Report Text: KFGX 210535Z AUTO 26003KT 10SM CLR 10/09 A2993 RMK AO2 T01040092
Loading
Personal Weather Stations






























Interactive Weather Map New forecast layout! Learn more

10-Day Weather Forecast

Advertisements
Track Severe Weather on mobile